sensor_id;sensor_type;location;lat;lon;timestamp;pressure;altitude;pressure_sealevel;temperature;humidity
53262;BME280;39658;51.090;-1.786;2023-07-08T00:02:00;99859.56;;;20.52;100.00
53262;BME280;39658;51.090;-1.786;2023-07-08T00:04:27;99828.00;;;20.48;100.00
53262;BME280;39658;51.090;-1.786;2023-07-08T00:06:54;99849.03;;;20.51;100.00
53262;BME280;39658;51.090;-1.786;2023-07-08T00:09:20;99855.63;;;20.48;100.00
53262;BME280;39658;51.090;-1.786;2023-07-08T00:11:47;99845.09;;;20.47;100.00
53262;BME280;39658;51.090;-1.786;2023-07-08T00:14:14;99844.34;;;20.53;100.00
53262;BME280;39658;51.090;-1.786;2023-07-08T00:16:41;99841.66;;;20.53;100.00
53262;BME280;39658;51.090;-1.786;2023-07-08T00:19:09;99810.91;;;20.49;100.00
53262;BME280;39658;51.090;-1.786;2023-07-08T00:21:36;99830.97;;;20.53;100.00
53262;BME280;39658;51.090;-1.786;2023-07-08T00:24:03;99829.66;;;20.49;100.00
53262;BME280;39658;51.090;-1.786;2023-07-08T00:26:30;99821.19;;;20.45;100.00
53262;BME280;39658;51.090;-1.786;2023-07-08T00:28:57;99782.84;;;20.44;100.00
53262;BME280;39658;51.090;-1.786;2023-07-08T00:31:24;99774.25;;;20.49;100.00
53262;BME280;39658;51.090;-1.786;2023-07-08T00:33:52;99764.78;;;20.47;100.00
53262;BME280;39658;51.090;-1.786;2023-07-08T00:36:22;99730.78;;;20.47;100.00
53262;BME280;39658;51.090;-1.786;2023-07-08T00:38:50;99753.75;;;20.56;100.00
53262;BME280;39658;51.090;-1.786;2023-07-08T00:41:21;99761.22;;;20.61;100.00
53262;BME280;39658;51.090;-1.786;2023-07-08T00:43:50;99708.97;;;20.50;100.00
53262;BME280;39658;51.090;-1.786;2023-07-08T00:46:40;99696.34;;;20.44;100.00
53262;BME280;39658;51.090;-1.786;2023-07-08T00:49:17;99651.41;;;20.39;100.00
53262;BME280;39658;51.090;-1.786;2023-07-08T00:51:48;99620.78;;;20.42;100.00
53262;BME280;39658;51.090;-1.786;2023-07-08T00:54:16;99609.69;;;20.45;100.00
53262;BME280;39658;51.090;-1.786;2023-07-08T00:56:47;99606.63;;;20.48;100.00
53262;BME280;39658;51.090;-1.786;2023-07-08T00:59:19;99604.50;;;20.43;100.00
53262;BME280;39658;51.090;-1.786;2023-07-08T01:01:47;99582.53;;;20.26;100.00
53262;BME280;39658;51.090;-1.786;2023-07-08T01:04:17;99599.56;;;20.19;100.00
53262;BME280;39658;51.090;-1.786;2023-07-08T01:06:48;99621.91;;;20.11;100.00
53262;BME280;39658;51.090;-1.786;2023-07-08T01:09:24;99644.22;;;19.97;100.00
53262;BME280;39658;51.090;-1.786;2023-07-08T01:11:54;99852.59;;;19.91;100.00
53262;BME280;39658;51.090;-1.786;2023-07-08T01:14:25;99994.72;;;19.88;100.00
53262;BME280;39658;51.090;-1.786;2023-07-08T01:16:53;100160.81;;;19.79;100.00
53262;BME280;39658;51.090;-1.786;2023-07-08T01:19:22;100453.38;;;19.86;100.00
53262;BME280;39658;51.090;-1.786;2023-07-08T01:22:02;100589.13;;;19.84;100.00
53262;BME280;39658;51.090;-1.786;2023-07-08T01:24:31;100744.13;;;19.85;100.00
53262;BME280;39658;51.090;-1.786;2023-07-08T01:27:00;100808.72;;;19.90;100.00
53262;BME280;39658;51.090;-1.786;2023-07-08T01:29:27;100854.38;;;19.89;100.00
53262;BME280;39658;51.090;-1.786;2023-07-08T01:31:55;100883.84;;;19.97;100.00
53262;BME280;39658;51.090;-1.786;2023-07-08T01:34:22;100877.44;;;19.90;100.00
53262;BME280;39658;51.090;-1.786;2023-07-08T01:36:51;100835.06;;;19.77;100.00
53262;BME280;39658;51.090;-1.786;2023-07-08T01:39:22;100805.47;;;19.79;100.00
53262;BME280;39658;51.090;-1.786;2023-07-08T01:41:49;100780.75;;;19.77;100.00
53262;BME280;39658;51.090;-1.786;2023-07-08T01:44:29;100783.41;;;19.77;100.00
53262;BME280;39658;51.090;-1.786;2023-07-08T01:46:58;100778.06;;;19.77;100.00
53262;BME280;39658;51.090;-1.786;2023-07-08T01:49:27;100782.34;;;19.69;100.00
53262;BME280;39658;51.090;-1.786;2023-07-08T01:51:55;100796.31;;;19.81;100.00
53262;BME280;39658;51.090;-1.786;2023-07-08T01:54:24;100803.25;;;19.74;100.00
53262;BME280;39658;51.090;-1.786;2023-07-08T01:56:54;100807.56;;;19.67;100.00
53262;BME280;39658;51.090;-1.786;2023-07-08T01:59:21;100819.53;;;19.54;100.00
53262;BME280;39658;51.090;-1.786;2023-07-08T02:01:48;100819.00;;;19.51;100.00
53262;BME280;39658;51.090;-1.786;2023-07-08T02:04:20;100816.88;;;19.54;100.00
53262;BME280;39658;51.090;-1.786;2023-07-08T02:06:51;100813.44;;;19.44;100.00
53262;BME280;39658;51.090;-1.786;2023-07-08T02:09:18;100829.44;;;19.36;100.00
53262;BME280;39658;51.090;-1.786;2023-07-08T02:11:46;100818.50;;;19.29;100.00
53262;BME280;39658;51.090;-1.786;2023-07-08T02:14:13;100834.13;;;19.16;100.00
53262;BME280;39658;51.090;-1.786;2023-07-08T02:16:40;100843.59;;;19.10;100.00
53262;BME280;39658;51.090;-1.786;2023-07-08T02:19:06;100846.34;;;19.00;100.00
53262;BME280;39658;51.090;-1.786;2023-07-08T02:21:33;100850.09;;;18.90;100.00
53262;BME280;39658;51.090;-1.786;2023-07-08T02:24:00;100864.44;;;18.89;100.00
53262;BME280;39658;51.090;-1.786;2023-07-08T02:26:27;100858.84;;;18.82;100.00
53262;BME280;39658;51.090;-1.786;2023-07-08T02:28:58;100858.56;;;18.85;100.00
53262;BME280;39658;51.090;-1.786;2023-07-08T02:31:26;100857.56;;;18.86;100.00
53262;BME280;39658;51.090;-1.786;2023-07-08T02:33:53;100843.38;;;18.86;100.00
53262;BME280;39658;51.090;-1.786;2023-07-08T02:36:20;100855.16;;;18.83;100.00
53262;BME280;39658;51.090;-1.786;2023-07-08T02:38:47;100844.19;;;18.86;100.00
53262;BME280;39658;51.090;-1.786;2023-07-08T02:41:14;100848.56;;;18.87;100.00
53262;BME280;39658;51.090;-1.786;2023-07-08T02:43:40;100851.09;;;18.89;100.00
53262;BME280;39658;51.090;-1.786;2023-07-08T02:46:08;100850.69;;;18.83;100.00
53262;BME280;39658;51.090;-1.786;2023-07-08T02:48:35;100842.81;;;18.82;100.00
53262;BME280;39658;51.090;-1.786;2023-07-08T02:51:03;100853.44;;;18.92;100.00
53262;BME280;39658;51.090;-1.786;2023-07-08T02:53:30;100850.25;;;18.88;100.00
53262;BME280;39658;51.090;-1.786;2023-07-08T02:55:57;100854.75;;;18.88;100.00
53262;BME280;39658;51.090;-1.786;2023-07-08T02:58:24;100859.09;;;18.89;100.00
53262;BME280;39658;51.090;-1.786;2023-07-08T03:00:52;100851.50;;;18.84;100.00
53262;BME280;39658;51.090;-1.786;2023-07-08T03:03:20;100851.81;;;18.81;100.00
53262;BME280;39658;51.090;-1.786;2023-07-08T03:05:54;100853.22;;;18.85;100.00
53262;BME280;39658;51.090;-1.786;2023-07-08T03:08:21;100836.13;;;18.96;100.00
53262;BME280;39658;51.090;-1.786;2023-07-08T03:10:49;100854.84;;;18.96;100.00
53262;BME280;39658;51.090;-1.786;2023-07-08T03:13:20;100854.53;;;18.99;100.00
53262;BME280;39658;51.090;-1.786;2023-07-08T03:15:47;100850.09;;;18.90;100.00
53262;BME280;39658;51.090;-1.786;2023-07-08T03:18:13;100847.97;;;18.93;100.00
53262;BME280;39658;51.090;-1.786;2023-07-08T03:20:42;100853.59;;;18.90;100.00
53262;BME280;39658;51.090;-1.786;2023-07-08T03:23:10;100845.91;;;18.87;100.00
53262;BME280;39658;51.090;-1.786;2023-07-08T03:25:36;100851.09;;;18.89;100.00
53262;BME280;39658;51.090;-1.786;2023-07-08T03:28:03;100861.63;;;18.90;100.00
53262;BME280;39658;51.090;-1.786;2023-07-08T03:30:31;100879.53;;;18.80;100.00
53262;BME280;39658;51.090;-1.786;2023-07-08T03:32:58;100874.00;;;18.81;100.00
53262;BME280;39658;51.090;-1.786;2023-07-08T03:35:25;100880.97;;;18.74;100.00
53262;BME280;39658;51.090;-1.786;2023-07-08T03:37:53;100894.78;;;18.70;100.00
53262;BME280;39658;51.090;-1.786;2023-07-08T03:40:20;100903.91;;;18.67;100.00
53262;BME280;39658;51.090;-1.786;2023-07-08T03:42:47;100931.22;;;18.61;100.00
53262;BME280;39658;51.090;-1.786;2023-07-08T03:45:14;100954.19;;;18.54;100.00
53262;BME280;39658;51.090;-1.786;2023-07-08T03:47:40;100955.69;;;18.56;100.00
53262;BME280;39658;51.090;-1.786;2023-07-08T03:50:13;100970.34;;;18.52;100.00
53262;BME280;39658;51.090;-1.786;2023-07-08T03:52:44;100985.41;;;18.43;100.00
53262;BME280;39658;51.090;-1.786;2023-07-08T03:55:12;101010.44;;;18.33;100.00
53262;BME280;39658;51.090;-1.786;2023-07-08T03:57:39;101045.72;;;18.26;100.00
53262;BME280;39658;51.090;-1.786;2023-07-08T04:00:07;101166.09;;;18.23;100.00
53262;BME280;39658;51.090;-1.786;2023-07-08T04:02:37;101187.47;;;18.23;100.00
53262;BME280;39658;51.090;-1.786;2023-07-08T04:05:04;101046.88;;;18.14;100.00
53262;BME280;39658;51.090;-1.786;2023-07-08T04:07:31;101072.84;;;18.12;100.00
53262;BME280;39658;51.090;-1.786;2023-07-08T04:09:58;101086.75;;;18.16;100.00
53262;BME280;39658;51.090;-1.786;2023-07-08T04:12:27;101100.50;;;18.11;100.00
53262;BME280;39658;51.090;-1.786;2023-07-08T04:14:53;101109.94;;;18.05;100.00
53262;BME280;39658;51.090;-1.786;2023-07-08T04:17:20;101120.31;;;18.08;100.00
53262;BME280;39658;51.090;-1.786;2023-07-08T04:19:48;101119.91;;;18.03;100.00
53262;BME280;39658;51.090;-1.786;2023-07-08T04:22:15;101133.50;;;18.00;100.00
53262;BME280;39658;51.090;-1.786;2023-07-08T04:24:43;101134.66;;;17.98;100.00
53262;BME280;39658;51.090;-1.786;2023-07-08T04:27:13;101146.56;;;17.93;100.00
53262;BME280;39658;51.090;-1.786;2023-07-08T04:29:43;101160.91;;;18.02;100.00
53262;BME280;39658;51.090;-1.786;2023-07-08T04:32:10;101165.81;;;17.97;100.00
53262;BME280;39658;51.090;-1.786;2023-07-08T04:34:36;101132.00;;;17.98;100.00
53262;BME280;39658;51.090;-1.786;2023-07-08T04:37:03;101127.34;;;18.00;100.00
53262;BME280;39658;51.090;-1.786;2023-07-08T04:39:31;101128.31;;;17.99;100.00
53262;BME280;39658;51.090;-1.786;2023-07-08T04:41:58;101130.84;;;18.00;100.00
53262;BME280;39658;51.090;-1.786;2023-07-08T04:44:25;101131.44;;;18.04;100.00
53262;BME280;39658;51.090;-1.786;2023-07-08T04:46:55;101140.97;;;18.06;100.00
53262;BME280;39658;51.090;-1.786;2023-07-08T04:49:23;101145.31;;;18.17;100.00
53262;BME280;39658;51.090;-1.786;2023-07-08T04:51:53;101148.97;;;18.26;100.00
53262;BME280;39658;51.090;-1.786;2023-07-08T04:54:20;101155.41;;;18.33;100.00
53262;BME280;39658;51.090;-1.786;2023-07-08T04:56:48;101156.81;;;18.37;100.00
53262;BME280;39658;51.090;-1.786;2023-07-08T04:59:16;101158.38;;;18.40;100.00
53262;BME280;39658;51.090;-1.786;2023-07-08T05:01:43;101169.06;;;18.40;100.00
53262;BME280;39658;51.090;-1.786;2023-07-08T05:04:13;101164.13;;;18.45;100.00
53262;BME280;39658;51.090;-1.786;2023-07-08T05:06:41;101163.16;;;18.46;100.00
53262;BME280;39658;51.090;-1.786;2023-07-08T05:09:08;101166.91;;;18.53;100.00
53262;BME280;39658;51.090;-1.786;2023-07-08T05:11:35;101164.69;;;18.58;100.00
53262;BME280;39658;51.090;-1.786;2023-07-08T05:14:03;101159.63;;;18.55;100.00
53262;BME280;39658;51.090;-1.786;2023-07-08T05:16:34;101153.44;;;18.55;100.00
53262;BME280;39658;51.090;-1.786;2023-07-08T05:19:01;101163.00;;;18.57;100.00
53262;BME280;39658;51.090;-1.786;2023-07-08T05:21:30;101150.63;;;18.66;100.00
53262;BME280;39658;51.090;-1.786;2023-07-08T05:23:59;101151.81;;;18.81;100.00
53262;BME280;39658;51.090;-1.786;2023-07-08T05:26:25;101156.19;;;18.92;100.00
53262;BME280;39658;51.090;-1.786;2023-07-08T05:28:52;101151.22;;;19.07;100.00
53262;BME280;39658;51.090;-1.786;2023-07-08T05:31:19;101128.97;;;19.16;100.00
53262;BME280;39658;51.090;-1.786;2023-07-08T05:33:45;101099.34;;;19.28;100.00
53262;BME280;39658;51.090;-1.786;2023-07-08T05:36:12;101085.94;;;19.37;100.00
53262;BME280;39658;51.090;-1.786;2023-07-08T05:38:40;101040.88;;;19.43;100.00
53262;BME280;39658;51.090;-1.786;2023-07-08T05:41:07;101021.94;;;19.54;100.00
53262;BME280;39658;51.090;-1.786;2023-07-08T05:43:34;100979.34;;;19.61;100.00
53262;BME280;39658;51.090;-1.786;2023-07-08T05:46:02;100934.44;;;19.64;100.00
53262;BME280;39658;51.090;-1.786;2023-07-08T05:48:28;100922.19;;;19.62;100.00
53262;BME280;39658;51.090;-1.786;2023-07-08T05:50:55;100927.88;;;19.59;100.00
53262;BME280;39658;51.090;-1.786;2023-07-08T05:53:22;100914.44;;;19.50;100.00
53262;BME280;39658;51.090;-1.786;2023-07-08T05:55:50;100931.25;;;19.43;100.00
53262;BME280;39658;51.090;-1.786;2023-07-08T05:58:17;100938.19;;;19.53;100.00
53262;BME280;39658;51.090;-1.786;2023-07-08T06:00:44;100949.94;;;19.61;100.00
53262;BME280;39658;51.090;-1.786;2023-07-08T06:03:11;100941.06;;;19.60;100.00
53262;BME280;39658;51.090;-1.786;2023-07-08T06:05:38;100952.75;;;19.59;100.00
53262;BME280;39658;51.090;-1.786;2023-07-08T06:08:06;100940.72;;;19.55;100.00
53262;BME280;39658;51.090;-1.786;2023-07-08T06:10:34;100931.16;;;19.52;100.00
53262;BME280;39658;51.090;-1.786;2023-07-08T06:13:02;100948.97;;;19.44;100.00
53262;BME280;39658;51.090;-1.786;2023-07-08T06:15:30;100942.88;;;19.33;100.00
53262;BME280;39658;51.090;-1.786;2023-07-08T06:17:56;100947.59;;;19.22;100.00
53262;BME280;39658;51.090;-1.786;2023-07-08T06:20:26;100958.50;;;19.10;100.00
53262;BME280;39658;51.090;-1.786;2023-07-08T06:22:53;100973.75;;;19.00;100.00
53262;BME280;39658;51.090;-1.786;2023-07-08T06:25:20;101001.06;;;18.94;100.00
53262;BME280;39658;51.090;-1.786;2023-07-08T06:27:46;100991.84;;;18.88;100.00
53262;BME280;39658;51.090;-1.786;2023-07-08T06:30:15;100988.31;;;18.88;100.00
53262;BME280;39658;51.090;-1.786;2023-07-08T06:32:41;100993.31;;;19.00;100.00
53262;BME280;39658;51.090;-1.786;2023-07-08T06:35:08;100974.25;;;19.13;100.00
53262;BME280;39658;51.090;-1.786;2023-07-08T06:37:35;100964.50;;;19.22;100.00
53262;BME280;39658;51.090;-1.786;2023-07-08T06:40:02;100967.84;;;19.42;100.00
53262;BME280;39658;51.090;-1.786;2023-07-08T06:42:29;100955.59;;;19.58;100.00
53262;BME280;39658;51.090;-1.786;2023-07-08T06:44:56;100938.94;;;19.64;100.00
53262;BME280;39658;51.090;-1.786;2023-07-08T06:47:24;100950.38;;;19.74;100.00
53262;BME280;39658;51.090;-1.786;2023-07-08T06:49:51;100938.50;;;19.95;100.00
53262;BME280;39658;51.090;-1.786;2023-07-08T06:52:17;100929.06;;;20.08;100.00
53262;BME280;39658;51.090;-1.786;2023-07-08T06:54:44;100956.09;;;20.23;100.00
53262;BME280;39658;51.090;-1.786;2023-07-08T06:57:11;100956.22;;;20.14;100.00
53262;BME280;39658;51.090;-1.786;2023-07-08T06:59:38;100968.06;;;20.11;100.00
53262;BME280;39658;51.090;-1.786;2023-07-08T07:02:05;100981.91;;;20.06;100.00
53262;BME280;39658;51.090;-1.786;2023-07-08T07:04:33;100977.88;;;20.02;100.00
53262;BME280;39658;51.090;-1.786;2023-07-08T07:07:01;100979.41;;;20.05;100.00
53262;BME280;39658;51.090;-1.786;2023-07-08T07:09:27;100976.72;;;20.05;100.00
53262;BME280;39658;51.090;-1.786;2023-07-08T07:11:54;100978.41;;;20.06;100.00
53262;BME280;39658;51.090;-1.786;2023-07-08T07:14:21;100972.66;;;20.01;100.00
53262;BME280;39658;51.090;-1.786;2023-07-08T07:16:48;100970.84;;;20.01;100.00
53262;BME280;39658;51.090;-1.786;2023-07-08T07:19:14;100979.19;;;19.98;100.00
53262;BME280;39658;51.090;-1.786;2023-07-08T07:21:42;100982.38;;;20.02;100.00
53262;BME280;39658;51.090;-1.786;2023-07-08T07:24:09;100984.75;;;20.05;100.00
53262;BME280;39658;51.090;-1.786;2023-07-08T07:26:37;100991.47;;;20.09;100.00
53262;BME280;39658;51.090;-1.786;2023-07-08T07:29:04;100981.28;;;20.13;100.00
53262;BME280;39658;51.090;-1.786;2023-07-08T07:31:31;100985.66;;;20.14;100.00
53262;BME280;39658;51.090;-1.786;2023-07-08T07:33:58;100995.91;;;20.18;100.00
53262;BME280;39658;51.090;-1.786;2023-07-08T07:36:25;101000.78;;;20.23;100.00
53262;BME280;39658;51.090;-1.786;2023-07-08T07:38:54;101018.88;;;20.29;100.00
53262;BME280;39658;51.090;-1.786;2023-07-08T07:41:21;101037.78;;;20.27;100.00
53262;BME280;39658;51.090;-1.786;2023-07-08T07:43:48;101078.31;;;20.33;100.00
53262;BME280;39658;51.090;-1.786;2023-07-08T07:46:14;101102.19;;;20.26;100.00
53262;BME280;39658;51.090;-1.786;2023-07-08T07:48:41;101123.47;;;20.27;100.00
53262;BME280;39658;51.090;-1.786;2023-07-08T07:51:08;101122.22;;;20.22;100.00
53262;BME280;39658;51.090;-1.786;2023-07-08T07:53:36;101108.84;;;20.04;100.00
53262;BME280;39658;51.090;-1.786;2023-07-08T07:56:05;101133.41;;;19.81;100.00
53262;BME280;39658;51.090;-1.786;2023-07-08T07:58:32;101127.16;;;19.63;100.00
53262;BME280;39658;51.090;-1.786;2023-07-08T08:00:59;101155.41;;;19.47;100.00
53262;BME280;39658;51.090;-1.786;2023-07-08T08:03:27;101181.50;;;19.35;100.00
53262;BME280;39658;51.090;-1.786;2023-07-08T08:05:54;101191.69;;;19.22;100.00
53262;BME280;39658;51.090;-1.786;2023-07-08T08:08:20;101261.47;;;19.19;100.00
53262;BME280;39658;51.090;-1.786;2023-07-08T08:10:48;101277.94;;;19.05;100.00
53262;BME280;39658;51.090;-1.786;2023-07-08T08:13:16;101293.88;;;18.87;100.00
53262;BME280;39658;51.090;-1.786;2023-07-08T08:15:43;101291.31;;;18.75;100.00
53262;BME280;39658;51.090;-1.786;2023-07-08T08:18:10;101250.69;;;18.62;100.00
53262;BME280;39658;51.090;-1.786;2023-07-08T08:20:37;101195.19;;;18.56;100.00
53262;BME280;39658;51.090;-1.786;2023-07-08T08:23:05;101154.28;;;18.45;100.00
53262;BME280;39658;51.090;-1.786;2023-07-08T08:25:33;101136.59;;;18.35;100.00
53262;BME280;39658;51.090;-1.786;2023-07-08T08:27:59;101123.81;;;18.28;100.00
53262;BME280;39658;51.090;-1.786;2023-07-08T08:30:27;101103.03;;;18.32;100.00
53262;BME280;39658;51.090;-1.786;2023-07-08T08:32:54;101100.91;;;18.36;100.00
53262;BME280;39658;51.090;-1.786;2023-07-08T08:35:21;101101.31;;;18.41;100.00
53262;BME280;39658;51.090;-1.786;2023-07-08T08:37:48;101112.72;;;18.43;100.00
53262;BME280;39658;51.090;-1.786;2023-07-08T08:40:17;101110.59;;;18.46;100.00
53262;BME280;39658;51.090;-1.786;2023-07-08T08:42:46;101115.50;;;18.51;100.00
53262;BME280;39658;51.090;-1.786;2023-07-08T08:45:19;101105.66;;;18.52;100.00
53262;BME280;39658;51.090;-1.786;2023-07-08T08:47:54;101101.88;;;18.54;100.00
53262;BME280;39658;51.090;-1.786;2023-07-08T08:50:29;101104.38;;;18.56;100.00
53262;BME280;39658;51.090;-1.786;2023-07-08T08:52:58;101092.97;;;18.63;100.00
53262;BME280;39658;51.090;-1.786;2023-07-08T08:55:26;101089.19;;;18.66;100.00
53262;BME280;39658;51.090;-1.786;2023-07-08T08:58:04;101076.53;;;18.68;100.00
53262;BME280;39658;51.090;-1.786;2023-07-08T09:00:42;101072.16;;;18.67;100.00
53262;BME280;39658;51.090;-1.786;2023-07-08T09:03:15;101071.63;;;18.63;100.00
53262;BME280;39658;51.090;-1.786;2023-07-08T09:05:44;101061.22;;;18.60;100.00
53262;BME280;39658;51.090;-1.786;2023-07-08T09:08:14;101054.06;;;18.61;100.00
53262;BME280;39658;51.090;-1.786;2023-07-08T09:10:46;101035.34;;;18.61;100.00
53262;BME280;39658;51.090;-1.786;2023-07-08T09:13:22;101030.72;;;18.63;100.00
53262;BME280;39658;51.090;-1.786;2023-07-08T09:15:59;101033.69;;;18.60;100.00
53262;BME280;39658;51.090;-1.786;2023-07-08T09:18:33;101042.09;;;18.65;100.00
53262;BME280;39658;51.090;-1.786;2023-07-08T09:21:24;101039.13;;;18.68;100.00
53262;BME280;39658;51.090;-1.786;2023-07-08T09:23:56;101053.31;;;18.69;100.00
53262;BME280;39658;51.090;-1.786;2023-07-08T09:26:27;101073.97;;;18.76;100.00
53262;BME280;39658;51.090;-1.786;2023-07-08T09:28:56;101091.81;;;18.76;100.00
53262;BME280;39658;51.090;-1.786;2023-07-08T09:31:24;101098.56;;;18.80;100.00
53262;BME280;39658;51.090;-1.786;2023-07-08T09:34:04;101089.00;;;18.77;100.00
53262;BME280;39658;51.090;-1.786;2023-07-08T09:36:31;101089.00;;;18.77;100.00
53262;BME280;39658;51.090;-1.786;2023-07-08T09:39:00;101076.47;;;18.78;100.00
53262;BME280;39658;51.090;-1.786;2023-07-08T09:41:32;101094.88;;;18.81;100.00
53262;BME280;39658;51.090;-1.786;2023-07-08T09:44:13;101104.34;;;18.85;100.00
53262;BME280;39658;51.090;-1.786;2023-07-08T09:46:40;101123.88;;;18.86;100.00
53262;BME280;39658;51.090;-1.786;2023-07-08T09:49:19;101149.47;;;18.88;100.00
53262;BME280;39658;51.090;-1.786;2023-07-08T09:51:48;101154.38;;;18.93;100.00
53262;BME280;39658;51.090;-1.786;2023-07-08T09:54:16;101164.88;;;19.04;100.00
53262;BME280;39658;51.090;-1.786;2023-07-08T09:56:45;101180.13;;;19.22;100.00
53262;BME280;39658;51.090;-1.786;2023-07-08T09:59:19;101175.25;;;19.45;100.00
53262;BME280;39658;51.090;-1.786;2023-07-08T10:01:47;101182.84;;;19.77;100.00
53262;BME280;39658;51.090;-1.786;2023-07-08T10:04:14;101191.06;;;20.12;100.00
53262;BME280;39658;51.090;-1.786;2023-07-08T10:06:46;101189.53;;;20.27;100.00
53262;BME280;39658;51.090;-1.786;2023-07-08T10:09:18;101188.84;;;20.43;100.00
53262;BME280;39658;51.090;-1.786;2023-07-08T10:11:47;101194.41;;;20.68;100.00
53262;BME280;39658;51.090;-1.786;2023-07-08T10:14:24;101199.91;;;20.84;100.00
53262;BME280;39658;51.090;-1.786;2023-07-08T10:16:52;101202.59;;;20.84;100.00
53262;BME280;39658;51.090;-1.786;2023-07-08T10:19:20;101203.25;;;20.86;100.00
53262;BME280;39658;51.090;-1.786;2023-07-08T10:21:55;101200.44;;;20.88;100.00
53262;BME280;39658;51.090;-1.786;2023-07-08T10:24:30;101197.13;;;20.94;100.00
53262;BME280;39658;51.090;-1.786;2023-07-08T10:27:08;101227.47;;;20.94;100.00
53262;BME280;39658;51.090;-1.786;2023-07-08T10:29:44;101229.19;;;21.04;100.00
53262;BME280;39658;51.090;-1.786;2023-07-08T10:32:23;101232.66;;;20.96;100.00
53262;BME280;39658;51.090;-1.786;2023-07-08T10:34:55;101264.44;;;20.91;100.00
53262;BME280;39658;51.090;-1.786;2023-07-08T10:37:36;101264.97;;;20.94;100.00
53262;BME280;39658;51.090;-1.786;2023-07-08T10:40:24;101302.97;;;20.90;100.00
53262;BME280;39658;51.090;-1.786;2023-07-08T10:43:22;101330.69;;;20.80;100.00
53262;BME280;39658;51.090;-1.786;2023-07-08T10:45:59;101313.53;;;20.73;100.00
53262;BME280;39658;51.090;-1.786;2023-07-08T10:48:47;101306.38;;;20.64;100.00
53262;BME280;39658;51.090;-1.786;2023-07-08T10:51:27;101297.72;;;20.52;100.00
53262;BME280;39658;51.090;-1.786;2023-07-08T10:54:18;101303.69;;;20.46;100.00
53262;BME280;39658;51.090;-1.786;2023-07-08T10:56:51;101305.06;;;20.32;100.00
53262;BME280;39658;51.090;-1.786;2023-07-08T10:59:31;101300.06;;;20.19;100.00
53262;BME280;39658;51.090;-1.786;2023-07-08T11:02:20;101300.13;;;20.09;100.00
53262;BME280;39658;51.090;-1.786;2023-07-08T11:04:58;101297.47;;;20.09;100.00
53262;BME280;39658;51.090;-1.786;2023-07-08T11:07:36;101292.03;;;20.01;100.00
53262;BME280;39658;51.090;-1.786;2023-07-08T11:10:13;101292.84;;;20.02;100.00
53262;BME280;39658;51.090;-1.786;2023-07-08T11:12:45;101287.13;;;19.97;100.00
53262;BME280;39658;51.090;-1.786;2023-07-08T11:15:17;101279.09;;;19.97;100.00
53262;BME280;39658;51.090;-1.786;2023-07-08T11:17:50;101286.44;;;20.13;100.00
53262;BME280;39658;51.090;-1.786;2023-07-08T11:20:22;101285.47;;;20.14;100.00
53262;BME280;39658;51.090;-1.786;2023-07-08T11:22:54;101285.09;;;20.26;100.00
53262;BME280;39658;51.090;-1.786;2023-07-08T11:25:27;101297.44;;;20.37;100.00
53262;BME280;39658;51.090;-1.786;2023-07-08T11:27:56;101303.53;;;20.48;100.00
53262;BME280;39658;51.090;-1.786;2023-07-08T11:30:29;101306.94;;;20.68;100.00
53262;BME280;39658;51.090;-1.786;2023-07-08T11:33:00;101305.25;;;20.85;100.00
53262;BME280;39658;51.090;-1.786;2023-07-08T11:35:35;101329.84;;;20.98;100.00
53262;BME280;39658;51.090;-1.786;2023-07-08T11:38:05;101347.22;;;20.94;100.00
53262;BME280;39658;51.090;-1.786;2023-07-08T11:40:49;101353.03;;;20.89;100.00
53262;BME280;39658;51.090;-1.786;2023-07-08T11:43:17;101363.16;;;20.77;100.00
53262;BME280;39658;51.090;-1.786;2023-07-08T11:45:44;101358.56;;;20.70;100.00
53262;BME280;39658;51.090;-1.786;2023-07-08T11:48:13;101356.09;;;20.76;100.00
53262;BME280;39658;51.090;-1.786;2023-07-08T11:50:43;101362.75;;;20.72;100.00
53262;BME280;39658;51.090;-1.786;2023-07-08T11:53:13;101358.25;;;20.73;100.00
53262;BME280;39658;51.090;-1.786;2023-07-08T11:55:47;101350.69;;;20.68;100.00
53262;BME280;39658;51.090;-1.786;2023-07-08T11:58:20;101355.59;;;20.73;100.00
53262;BME280;39658;51.090;-1.786;2023-07-08T12:00:54;101343.50;;;20.87;100.00
53262;BME280;39658;51.090;-1.786;2023-07-08T12:03:23;101346.69;;;20.90;100.00
53262;BME280;39658;51.090;-1.786;2023-07-08T12:05:56;101344.00;;;20.90;100.00
53262;BME280;39658;51.090;-1.786;2023-07-08T12:08:33;101343.69;;;20.93;100.00
53262;BME280;39658;51.090;-1.786;2023-07-08T12:11:03;101337.84;;;21.16;100.00
53262;BME280;39658;51.090;-1.786;2023-07-08T12:13:30;101333.75;;;21.30;100.00
53262;BME280;39658;51.090;-1.786;2023-07-08T12:15:57;101353.63;;;21.19;100.00
53262;BME280;39658;51.090;-1.786;2023-07-08T12:18:25;101365.81;;;20.95;100.00
53262;BME280;39658;51.090;-1.786;2023-07-08T12:20:56;101377.41;;;20.78;100.00
53262;BME280;39658;51.090;-1.786;2023-07-08T12:23:25;101383.97;;;20.66;100.00
53262;BME280;39658;51.090;-1.786;2023-07-08T12:25:53;101377.03;;;20.63;100.00
53262;BME280;39658;51.090;-1.786;2023-07-08T12:28:23;101387.44;;;20.48;100.00
53262;BME280;39658;51.090;-1.786;2023-07-08T12:30:51;101376.66;;;20.30;100.00
53262;BME280;39658;51.090;-1.786;2023-07-08T12:33:26;101370.53;;;20.20;100.00
53262;BME280;39658;51.090;-1.786;2023-07-08T12:35:55;101366.63;;;20.14;100.00
53262;BME280;39658;51.090;-1.786;2023-07-08T12:38:27;101369.19;;;20.06;100.00
53262;BME280;39658;51.090;-1.786;2023-07-08T12:40:55;101372.31;;;20.01;100.00
53262;BME280;39658;51.090;-1.786;2023-07-08T12:43:23;101372.59;;;19.98;100.00